sensor_id;sensor_type;location;lat;lon;timestamp;noise_LAeq;noise_LA_min;noise_LA_max;noise_LA01;noise_LA95
60503;Laerm;51448;51.660;5.824;2023-02-26T00:01:58;52.57;33.23;64.86;;
60503;Laerm;51448;51.660;5.824;2023-02-26T00:04:28;49.74;32.17;60.51;;
60503;Laerm;51448;51.660;5.824;2023-02-26T00:06:56;49.02;31.86;59.42;;
60503;Laerm;51448;51.660;5.824;2023-02-26T00:09:25;49.45;31.60;60.54;;
60503;Laerm;51448;51.660;5.824;2023-02-26T00:11:53;50.35;31.95;61.08;;
60503;Laerm;51448;51.660;5.824;2023-02-26T00:14:22;49.68;31.67;60.56;;
60503;Laerm;51448;51.660;5.824;2023-02-26T00:19:55;50.17;32.42;60.84;;
60503;Laerm;51448;51.660;5.824;2023-02-26T00:22:23;49.17;32.28;59.85;;
60503;Laerm;51448;51.660;5.824;2023-02-26T00:24:50;50.68;32.41;61.06;;
60503;Laerm;51448;51.660;5.824;2023-02-26T00:27:18;50.39;32.09;60.74;;
60503;Laerm;51448;51.660;5.824;2023-02-26T00:29:49;50.17;29.87;60.78;;
60503;Laerm;51448;51.660;5.824;2023-02-26T00:32:17;50.15;30.15;61.17;;
60503;Laerm;51448;51.660;5.824;2023-02-26T00:34:46;50.43;30.72;60.99;;
60503;Laerm;51448;51.660;5.824;2023-02-26T00:40:47;48.36;32.41;60.32;;
60503;Laerm;51448;51.660;5.824;2023-02-26T00:43:24;50.13;31.71;61.11;;
60503;Laerm;51448;51.660;5.824;2023-02-26T00:46:23;49.55;32.43;60.79;;
60503;Laerm;51448;51.660;5.824;2023-02-26T00:49:40;49.64;32.46;61.85;;
60503;Laerm;51448;51.660;5.824;2023-02-26T00:52:27;47.97;32.30;59.79;;
60503;Laerm;51448;51.660;5.824;2023-02-26T00:54:57;50.59;32.29;60.99;;
60503;Laerm;51448;51.660;5.824;2023-02-26T00:57:24;49.91;32.08;60.80;;
60503;Laerm;51448;51.660;5.824;2023-02-26T00:59:52;50.40;31.99;61.17;;
60503;Laerm;51448;51.660;5.824;2023-02-26T01:02:20;49.86;31.62;61.25;;
60503;Laerm;51448;51.660;5.824;2023-02-26T01:04:48;50.86;31.15;62.66;;
60503;Laerm;51448;51.660;5.824;2023-02-26T01:07:21;50.44;30.60;61.20;;
60503;Laerm;51448;51.660;5.824;2023-02-26T01:09:51;50.77;32.09;60.80;;
60503;Laerm;51448;51.660;5.824;2023-02-26T01:12:19;49.34;32.00;60.22;;
60503;Laerm;51448;51.660;5.824;2023-02-26T01:14:47;50.06;32.06;60.86;;
60503;Laerm;51448;51.660;5.824;2023-02-26T01:20:39;49.38;31.81;60.38;;
60503;Laerm;51448;51.660;5.824;2023-02-26T01:23:18;49.98;32.30;60.75;;
60503;Laerm;51448;51.660;5.824;2023-02-26T01:25:57;49.99;30.16;60.66;;
60503;Laerm;51448;51.660;5.824;2023-02-26T01:28:26;50.57;29.82;60.91;;
60503;Laerm;51448;51.660;5.824;2023-02-26T01:30:59;49.09;29.91;60.00;;
60503;Laerm;51448;51.660;5.824;2023-02-26T01:33:40;51.37;30.15;63.18;;
60503;Laerm;51448;51.660;5.824;2023-02-26T01:36:20;49.00;32.01;60.47;;
60503;Laerm;51448;51.660;5.824;2023-02-26T01:41:45;49.14;31.70;60.40;;
60503;Laerm;51448;51.660;5.824;2023-02-26T01:44:26;50.11;32.25;60.91;;
60503;Laerm;51448;51.660;5.824;2023-02-26T01:47:42;49.97;32.02;60.87;;
60503;Laerm;51448;51.660;5.824;2023-02-26T01:50:15;49.62;32.27;60.76;;
60503;Laerm;51448;51.660;5.824;2023-02-26T01:55:19;49.34;32.37;64.50;;
60503;Laerm;51448;51.660;5.824;2023-02-26T01:57:50;49.76;31.91;60.59;;
60503;Laerm;51448;51.660;5.824;2023-02-26T02:00:20;50.06;31.91;65.19;;
60503;Laerm;51448;51.660;5.824;2023-02-26T02:02:49;48.98;31.67;60.21;;
60503;Laerm;51448;51.660;5.824;2023-02-26T02:05:34;48.94;31.25;60.39;;
60503;Laerm;51448;51.660;5.824;2023-02-26T02:08:07;49.89;30.97;60.81;;
60503;Laerm;51448;51.660;5.824;2023-02-26T02:10:35;50.05;31.30;63.65;;
60503;Laerm;51448;51.660;5.824;2023-02-26T02:13:16;50.78;32.08;62.05;;
60503;Laerm;51448;51.660;5.824;2023-02-26T02:16:06;49.38;31.91;60.67;;
60503;Laerm;51448;51.660;5.824;2023-02-26T02:22:33;49.08;29.25;60.64;;
60503;Laerm;51448;51.660;5.824;2023-02-26T02:31:14;49.38;31.73;61.05;;
60503;Laerm;51448;51.660;5.824;2023-02-26T02:36:48;48.60;29.63;60.24;;
60503;Laerm;51448;51.660;5.824;2023-02-26T02:39:49;50.03;30.16;62.90;;
60503;Laerm;51448;51.660;5.824;2023-02-26T02:48:13;49.84;29.43;60.74;;
60503;Laerm;51448;51.660;5.824;2023-02-26T02:50:49;50.72;29.80;66.56;;
60503;Laerm;51448;51.660;5.824;2023-02-26T02:53:25;49.88;29.72;68.11;;
60503;Laerm;51448;51.660;5.824;2023-02-26T03:01:39;50.18;30.08;60.52;;
60503;Laerm;51448;51.660;5.824;2023-02-26T03:04:14;49.64;29.85;60.52;;
60503;Laerm;51448;51.660;5.824;2023-02-26T03:06:43;50.30;29.85;67.47;;
60503;Laerm;51448;51.660;5.824;2023-02-26T03:09:13;49.22;30.09;62.05;;
60503;Laerm;51448;51.660;5.824;2023-02-26T03:11:41;49.79;29.52;60.69;;
60503;Laerm;51448;51.660;5.824;2023-02-26T03:14:12;48.84;29.23;60.07;;
60503;Laerm;51448;51.660;5.824;2023-02-26T03:19:37;49.47;29.35;60.57;;
60503;Laerm;51448;51.660;5.824;2023-02-26T03:22:29;49.43;29.23;63.90;;
60503;Laerm;51448;51.660;5.824;2023-02-26T03:27:57;48.93;29.62;59.57;;
60503;Laerm;51448;51.660;5.824;2023-02-26T03:31:14;48.69;30.40;65.75;;
60503;Laerm;51448;51.660;5.824;2023-02-26T03:37:05;47.78;31.57;59.05;;
60503;Laerm;51448;51.660;5.824;2023-02-26T03:39:41;48.57;31.84;61.15;;
60503;Laerm;51448;51.660;5.824;2023-02-26T03:42:25;49.72;31.71;60.83;;
60503;Laerm;51448;51.660;5.824;2023-02-26T03:45:04;49.71;31.53;60.54;;
60503;Laerm;51448;51.660;5.824;2023-02-26T03:47:35;49.38;31.60;60.61;;
60503;Laerm;51448;51.660;5.824;2023-02-26T03:50:10;49.74;31.07;60.73;;
60503;Laerm;51448;51.660;5.824;2023-02-26T03:52:52;49.40;31.18;60.51;;
60503;Laerm;51448;51.660;5.824;2023-02-26T03:56:18;49.06;31.33;60.67;;
60503;Laerm;51448;51.660;5.824;2023-02-26T03:59:02;48.95;31.40;60.61;;
60503;Laerm;51448;51.660;5.824;2023-02-26T04:01:57;48.19;30.85;59.91;;
60503;Laerm;51448;51.660;5.824;2023-02-26T04:04:50;49.62;31.40;61.42;;
60503;Laerm;51448;51.660;5.824;2023-02-26T04:07:21;48.74;31.91;59.93;;
60503;Laerm;51448;51.660;5.824;2023-02-26T04:09:50;49.22;31.49;60.07;;
60503;Laerm;51448;51.660;5.824;2023-02-26T04:12:23;49.68;31.26;60.85;;
60503;Laerm;51448;51.660;5.824;2023-02-26T04:14:55;49.89;30.77;61.19;;
60503;Laerm;51448;51.660;5.824;2023-02-26T04:17:24;51.09;30.30;63.06;;
60503;Laerm;51448;51.660;5.824;2023-02-26T04:19:52;50.98;31.55;61.12;;
60503;Laerm;51448;51.660;5.824;2023-02-26T04:22:20;50.76;31.74;61.60;;
60503;Laerm;51448;51.660;5.824;2023-02-26T04:24:48;50.96;31.08;61.40;;
60503;Laerm;51448;51.660;5.824;2023-02-26T04:27:17;50.95;31.16;61.72;;
60503;Laerm;51448;51.660;5.824;2023-02-26T04:29:45;50.65;30.96;61.09;;
60503;Laerm;51448;51.660;5.824;2023-02-26T04:32:13;49.73;31.13;60.71;;
60503;Laerm;51448;51.660;5.824;2023-02-26T04:34:41;50.12;31.14;61.11;;
60503;Laerm;51448;51.660;5.824;2023-02-26T04:37:09;50.51;31.12;61.40;;
60503;Laerm;51448;51.660;5.824;2023-02-26T04:39:37;50.67;30.94;61.16;;
60503;Laerm;51448;51.660;5.824;2023-02-26T04:42:05;50.52;31.15;61.13;;
60503;Laerm;51448;51.660;5.824;2023-02-26T04:44:34;50.18;30.95;61.14;;
60503;Laerm;51448;51.660;5.824;2023-02-26T04:47:02;50.12;29.18;61.30;;
60503;Laerm;51448;51.660;5.824;2023-02-26T04:49:31;50.92;29.27;61.58;;
60503;Laerm;51448;51.660;5.824;2023-02-26T04:51:59;50.76;29.32;61.49;;
60503;Laerm;51448;51.660;5.824;2023-02-26T04:54:27;50.92;29.76;61.69;;
60503;Laerm;51448;51.660;5.824;2023-02-26T04:56:55;51.35;31.97;61.72;;
60503;Laerm;51448;51.660;5.824;2023-02-26T04:59:23;51.12;31.79;61.46;;
60503;Laerm;51448;51.660;5.824;2023-02-26T05:01:51;51.15;32.00;61.66;;
60503;Laerm;51448;51.660;5.824;2023-02-26T05:04:20;51.14;31.84;61.57;;
60503;Laerm;51448;51.660;5.824;2023-02-26T05:06:51;60.52;31.81;70.79;;
60503;Laerm;51448;51.660;5.824;2023-02-26T05:09:20;50.29;31.58;61.04;;
60503;Laerm;51448;51.660;5.824;2023-02-26T05:11:49;49.77;31.81;60.95;;
60503;Laerm;51448;51.660;5.824;2023-02-26T05:14:16;50.12;31.79;61.16;;
60503;Laerm;51448;51.660;5.824;2023-02-26T05:16:48;50.86;32.01;61.42;;
60503;Laerm;51448;51.660;5.824;2023-02-26T05:19:16;51.67;31.54;61.91;;
60503;Laerm;51448;51.660;5.824;2023-02-26T05:21:46;51.24;31.67;61.68;;
60503;Laerm;51448;51.660;5.824;2023-02-26T05:24:16;51.36;31.76;61.64;;
60503;Laerm;51448;51.660;5.824;2023-02-26T05:26:44;51.65;32.44;62.00;;
60503;Laerm;51448;51.660;5.824;2023-02-26T05:29:13;51.54;32.37;65.35;;
60503;Laerm;51448;51.660;5.824;2023-02-26T05:31:40;51.86;32.57;66.49;;
60503;Laerm;51448;51.660;5.824;2023-02-26T05:34:10;51.30;31.69;61.74;;
60503;Laerm;51448;51.660;5.824;2023-02-26T05:36:37;52.00;32.60;61.95;;
60503;Laerm;51448;51.660;5.824;2023-02-26T05:39:05;52.27;32.14;69.93;;
60503;Laerm;51448;51.660;5.824;2023-02-26T05:41:33;51.28;31.80;61.82;;
60503;Laerm;51448;51.660;5.824;2023-02-26T05:44:01;52.58;32.90;64.61;;
60503;Laerm;51448;51.660;5.824;2023-02-26T05:46:28;52.11;32.61;69.39;;
60503;Laerm;51448;51.660;5.824;2023-02-26T05:48:56;52.17;32.48;62.26;;
60503;Laerm;51448;51.660;5.824;2023-02-26T05:51:24;51.54;31.95;62.03;;
60503;Laerm;51448;51.660;5.824;2023-02-26T05:53:52;52.75;31.97;70.88;;
60503;Laerm;51448;51.660;5.824;2023-02-26T05:56:19;54.62;31.90;73.90;;
60503;Laerm;51448;51.660;5.824;2023-02-26T05:58:47;52.16;31.94;68.01;;
60503;Laerm;51448;51.660;5.824;2023-02-26T06:01:15;51.55;31.96;61.69;;
60503;Laerm;51448;51.660;5.824;2023-02-26T06:03:43;51.99;32.13;61.84;;
60503;Laerm;51448;51.660;5.824;2023-02-26T06:06:12;51.50;32.38;65.16;;
60503;Laerm;51448;51.660;5.824;2023-02-26T06:08:42;60.78;32.41;70.89;;
60503;Laerm;51448;51.660;5.824;2023-02-26T06:11:10;50.90;32.20;61.38;;
60503;Laerm;51448;51.660;5.824;2023-02-26T06:13:39;51.09;32.25;69.21;;
60503;Laerm;51448;51.660;5.824;2023-02-26T06:16:07;51.02;32.59;63.84;;
60503;Laerm;51448;51.660;5.824;2023-02-26T06:18:35;51.08;32.02;61.53;;
60503;Laerm;51448;51.660;5.824;2023-02-26T06:21:02;51.81;32.13;64.67;;
60503;Laerm;51448;51.660;5.824;2023-02-26T06:23:31;51.03;32.44;61.74;;
60503;Laerm;51448;51.660;5.824;2023-02-26T06:25:58;52.18;32.46;69.08;;
60503;Laerm;51448;51.660;5.824;2023-02-26T06:28:26;53.09;32.43;66.64;;
60503;Laerm;51448;51.660;5.824;2023-02-26T06:30:54;52.48;32.81;70.59;;
60503;Laerm;51448;51.660;5.824;2023-02-26T06:33:23;53.26;32.81;69.83;;
60503;Laerm;51448;51.660;5.824;2023-02-26T06:35:51;51.27;33.53;61.86;;
60503;Laerm;51448;51.660;5.824;2023-02-26T06:38:19;52.38;33.48;62.25;;
60503;Laerm;51448;51.660;5.824;2023-02-26T06:40:47;52.16;34.17;67.02;;
60503;Laerm;51448;51.660;5.824;2023-02-26T06:43:15;51.31;33.55;62.11;;
60503;Laerm;51448;51.660;5.824;2023-02-26T06:45:42;51.10;34.02;61.68;;
60503;Laerm;51448;51.660;5.824;2023-02-26T06:48:10;51.64;31.51;62.73;;
60503;Laerm;51448;51.660;5.824;2023-02-26T06:50:41;51.46;31.10;66.21;;
60503;Laerm;51448;51.660;5.824;2023-02-26T06:53:08;51.43;31.96;69.08;;
60503;Laerm;51448;51.660;5.824;2023-02-26T06:55:46;52.70;33.76;71.18;;
60503;Laerm;51448;51.660;5.824;2023-02-26T06:58:16;67.08;33.25;95.36;;
60503;Laerm;51448;51.660;5.824;2023-02-26T07:00:44;53.56;34.61;68.05;;
60503;Laerm;51448;51.660;5.824;2023-02-26T07:03:14;60.92;34.67;92.56;;
60503;Laerm;51448;51.660;5.824;2023-02-26T07:05:46;54.43;34.74;74.24;;
60503;Laerm;51448;51.660;5.824;2023-02-26T07:08:13;51.68;34.35;65.94;;
60503;Laerm;51448;51.660;5.824;2023-02-26T07:10:42;51.86;34.54;61.79;;
60503;Laerm;51448;51.660;5.824;2023-02-26T07:13:10;53.23;34.21;79.16;;
60503;Laerm;51448;51.660;5.824;2023-02-26T07:15:37;51.22;34.18;68.66;;
60503;Laerm;51448;51.660;5.824;2023-02-26T07:18:05;62.60;33.81;94.18;;
60503;Laerm;51448;51.660;5.824;2023-02-26T07:20:33;54.28;34.80;72.50;;
60503;Laerm;51448;51.660;5.824;2023-02-26T07:23:01;52.10;34.41;71.49;;
60503;Laerm;51448;51.660;5.824;2023-02-26T07:25:29;51.28;34.08;62.62;;
60503;Laerm;51448;51.660;5.824;2023-02-26T07:27:57;51.50;34.67;63.90;;
60503;Laerm;51448;51.660;5.824;2023-02-26T07:30:26;53.34;33.39;74.42;;
60503;Laerm;51448;51.660;5.824;2023-02-26T07:32:54;51.29;34.80;61.38;;
60503;Laerm;51448;51.660;5.824;2023-02-26T07:35:22;54.89;34.59;75.91;;
60503;Laerm;51448;51.660;5.824;2023-02-26T07:37:50;54.29;34.32;77.16;;
60503;Laerm;51448;51.660;5.824;2023-02-26T07:40:18;53.05;34.63;72.81;;
60503;Laerm;51448;51.660;5.824;2023-02-26T07:42:46;51.63;33.95;65.72;;
60503;Laerm;51448;51.660;5.824;2023-02-26T07:45:14;53.12;33.66;69.86;;
60503;Laerm;51448;51.660;5.824;2023-02-26T07:47:44;54.88;35.33;72.52;;
60503;Laerm;51448;51.660;5.824;2023-02-26T07:50:12;53.23;35.89;71.30;;
60503;Laerm;51448;51.660;5.824;2023-02-26T07:52:40;53.60;35.10;72.65;;
60503;Laerm;51448;51.660;5.824;2023-02-26T07:55:09;52.65;34.17;73.68;;
60503;Laerm;51448;51.660;5.824;2023-02-26T07:57:37;51.69;33.72;68.16;;
60503;Laerm;51448;51.660;5.824;2023-02-26T08:00:07;57.91;34.74;80.49;;
60503;Laerm;51448;51.660;5.824;2023-02-26T08:02:39;51.37;33.26;66.51;;
60503;Laerm;51448;51.660;5.824;2023-02-26T08:05:07;52.39;33.92;68.99;;
60503;Laerm;51448;51.660;5.824;2023-02-26T08:07:35;57.66;33.57;87.19;;
60503;Laerm;51448;51.660;5.824;2023-02-26T08:10:04;54.67;34.29;77.47;;
60503;Laerm;51448;51.660;5.824;2023-02-26T08:12:32;52.13;34.23;70.38;;
60503;Laerm;51448;51.660;5.824;2023-02-26T08:15:00;54.24;34.38;76.14;;
60503;Laerm;51448;51.660;5.824;2023-02-26T08:17:27;59.23;34.70;81.45;;
60503;Laerm;51448;51.660;5.824;2023-02-26T08:19:55;54.99;32.49;76.98;;
60503;Laerm;51448;51.660;5.824;2023-02-26T08:22:23;51.59;33.27;66.92;;
60503;Laerm;51448;51.660;5.824;2023-02-26T08:24:51;53.14;34.78;69.26;;
60503;Laerm;51448;51.660;5.824;2023-02-26T08:27:18;52.36;34.74;68.60;;
60503;Laerm;51448;51.660;5.824;2023-02-26T08:29:46;52.07;33.68;65.61;;
60503;Laerm;51448;51.660;5.824;2023-02-26T08:32:18;53.58;34.38;73.49;;
60503;Laerm;51448;51.660;5.824;2023-02-26T08:34:46;53.43;33.82;67.50;;
60503;Laerm;51448;51.660;5.824;2023-02-26T08:37:14;53.27;35.27;73.78;;
60503;Laerm;51448;51.660;5.824;2023-02-26T08:39:41;52.33;33.88;73.99;;
60503;Laerm;51448;51.660;5.824;2023-02-26T08:42:09;59.49;33.60;81.05;;
60503;Laerm;51448;51.660;5.824;2023-02-26T08:44:38;51.87;32.73;71.07;;
60503;Laerm;51448;51.660;5.824;2023-02-26T08:47:06;61.30;32.68;89.11;;
60503;Laerm;51448;51.660;5.824;2023-02-26T08:49:33;52.97;33.62;74.82;;
60503;Laerm;51448;51.660;5.824;2023-02-26T08:52:01;51.17;34.00;65.68;;
60503;Laerm;51448;51.660;5.824;2023-02-26T08:54:29;53.41;34.70;72.79;;
60503;Laerm;51448;51.660;5.824;2023-02-26T08:56:57;50.85;32.89;62.83;;
60503;Laerm;51448;51.660;5.824;2023-02-26T08:59:25;52.92;33.34;73.94;;
60503;Laerm;51448;51.660;5.824;2023-02-26T09:01:53;54.10;34.08;72.31;;
60503;Laerm;51448;51.660;5.824;2023-02-26T09:04:21;51.98;34.10;65.81;;
60503;Laerm;51448;51.660;5.824;2023-02-26T09:06:48;53.39;33.71;73.15;;
60503;Laerm;51448;51.660;5.824;2023-02-26T09:09:16;51.18;33.56;72.93;;
60503;Laerm;51448;51.660;5.824;2023-02-26T09:11:46;53.35;34.59;74.19;;
60503;Laerm;51448;51.660;5.824;2023-02-26T09:14:14;55.05;32.69;78.18;;
60503;Laerm;51448;51.660;5.824;2023-02-26T09:16:41;57.05;33.57;78.74;;
60503;Laerm;51448;51.660;5.824;2023-02-26T09:19:09;53.32;34.45;71.47;;
60503;Laerm;51448;51.660;5.824;2023-02-26T09:21:37;53.99;34.65;74.87;;
60503;Laerm;51448;51.660;5.824;2023-02-26T09:24:05;58.63;36.95;79.37;;
60503;Laerm;51448;51.660;5.824;2023-02-26T09:26:33;50.52;33.47;68.81;;
60503;Laerm;51448;51.660;5.824;2023-02-26T09:29:01;59.75;35.76;87.43;;
60503;Laerm;51448;51.660;5.824;2023-02-26T09:31:29;53.00;33.34;71.73;;
60503;Laerm;51448;51.660;5.824;2023-02-26T09:33:57;53.23;32.41;77.54;;
60503;Laerm;51448;51.660;5.824;2023-02-26T09:36:24;53.61;34.11;74.55;;
60503;Laerm;51448;51.660;5.824;2023-02-26T09:38:53;53.45;35.04;72.72;;
60503;Laerm;51448;51.660;5.824;2023-02-26T09:41:31;57.72;36.51;77.06;;
60503;Laerm;51448;51.660;5.824;2023-02-26T09:44:20;57.28;33.96;78.94;;
60503;Laerm;51448;51.660;5.824;2023-02-26T09:47:16;57.49;37.14;78.96;;
60503;Laerm;51448;51.660;5.824;2023-02-26T09:51:09;51.67;32.80;70.74;;
60503;Laerm;51448;51.660;5.824;2023-02-26T09:53:29;52.39;32.95;76.84;;
60503;Laerm;51448;51.660;5.824;2023-02-26T09:56:07;52.39;33.49;75.38;;
60503;Laerm;51448;51.660;5.824;2023-02-26T09:58:38;62.39;36.04;89.32;;
60503;Laerm;51448;51.660;5.824;2023-02-26T10:11:01;49.88;32.77;68.82;;
60503;Laerm;51448;51.660;5.824;2023-02-26T10:13:46;53.86;34.33;75.57;;
60503;Laerm;51448;51.660;5.824;2023-02-26T10:16:31;53.08;36.16;72.90;;
60503;Laerm;51448;51.660;5.824;2023-02-26T10:19:09;58.89;33.92;89.37;;
60503;Laerm;51448;51.660;5.824;2023-02-26T10:21:50;60.92;33.73;80.67;;
60503;Laerm;51448;51.660;5.824;2023-02-26T10:24:27;57.98;35.17;76.46;;
60503;Laerm;51448;51.660;5.824;2023-02-26T10:27:11;68.31;35.30;97.09;;
60503;Laerm;51448;51.660;5.824;2023-02-26T10:35:26;61.20;34.08;82.08;;
60503;Laerm;51448;51.660;5.824;2023-02-26T10:38:10;63.29;35.50;85.64;;
60503;Laerm;51448;51.660;5.824;2023-02-26T10:40:46;64.19;36.77;88.24;;
60503;Laerm;51448;51.660;5.824;2023-02-26T10:43:39;61.69;36.48;84.71;;
60503;Laerm;51448;51.660;5.824;2023-02-26T10:46:32;65.82;35.02;89.37;;
60503;Laerm;51448;51.660;5.824;2023-02-26T10:52:15;58.74;35.53;82.05;;
60503;Laerm;51448;51.660;5.824;2023-02-26T10:57:29;60.92;35.81;83.66;;
60503;Laerm;51448;51.660;5.824;2023-02-26T11:00:00;56.32;38.88;74.38;;
60503;Laerm;51448;51.660;5.824;2023-02-26T11:02:44;63.82;37.82;86.47;;
60503;Laerm;51448;51.660;5.824;2023-02-26T11:05:27;64.80;37.98;84.82;;
60503;Laerm;51448;51.660;5.824;2023-02-26T11:08:23;66.54;35.65;88.68;;
60503;Laerm;51448;51.660;5.824;2023-02-26T11:11:01;70.24;40.79;95.00;;
60503;Laerm;51448;51.660;5.824;2023-02-26T11:13:32;66.54;38.88;87.69;;
60503;Laerm;51448;51.660;5.824;2023-02-26T11:16:11;61.54;36.97;83.86;;
60503;Laerm;51448;51.660;5.824;2023-02-26T11:18:53;61.73;33.93;80.78;;
60503;Laerm;51448;51.660;5.824;2023-02-26T11:21:27;64.91;34.98;87.01;;
60503;Laerm;51448;51.660;5.824;2023-02-26T11:24:27;60.30;37.40;84.45;;
60503;Laerm;51448;51.660;5.824;2023-02-26T11:26:58;62.59;38.66;84.14;;
60503;Laerm;51448;51.660;5.824;2023-02-26T11:29:40;58.60;34.82;84.95;;
60503;Laerm;51448;51.660;5.824;2023-02-26T11:32:19;56.44;33.55;78.76;;
60503;Laerm;51448;51.660;5.824;2023-02-26T11:34:51;51.28;34.36;74.07;;
60503;Laerm;51448;51.660;5.824;2023-02-26T11:37:27;61.39;36.73;81.03;;
60503;Laerm;51448;51.660;5.824;2023-02-26T11:40:12;60.33;38.23;84.12;;
60503;Laerm;51448;51.660;5.824;2023-02-26T11:42:51;67.60;37.95;90.74;;
60503;Laerm;51448;51.660;5.824;2023-02-26T11:45:20;61.02;36.06;83.92;;
60503;Laerm;51448;51.660;5.824;2023-02-26T11:48:00;70.76;40.01;94.74;;
60503;Laerm;51448;51.660;5.824;2023-02-26T11:50:35;62.55;38.33;83.30;;
60503;Laerm;51448;51.660;5.824;2023-02-26T11:53:31;65.57;39.85;91.84;;
60503;Laerm;51448;51.660;5.824;2023-02-26T11:56:18;66.26;39.77;87.59;;
60503;Laerm;51448;51.660;5.824;2023-02-26T11:58:52;60.39;38.83;84.03;;
60503;Laerm;51448;51.660;5.824;2023-02-26T12:01:27;58.72;35.90;82.66;;
60503;Laerm;51448;51.660;5.824;2023-02-26T12:04:02;59.07;35.71;80.33;;
60503;Laerm;51448;51.660;5.824;2023-02-26T12:06:30;63.75;37.54;85.38;;
60503;Laerm;51448;51.660;5.824;2023-02-26T12:08:57;67.49;37.95;88.43;;
60503;Laerm;51448;51.660;5.824;2023-02-26T12:11:38;60.74;35.23;87.29;;
60503;Laerm;51448;51.660;5.824;2023-02-26T12:20:25;62.10;35.01;83.23;;
60503;Laerm;51448;51.660;5.824;2023-02-26T12:28:32;58.14;33.11;78.96;;
60503;Laerm;51448;51.660;5.824;2023-02-26T12:31:20;65.56;36.69;83.33;;
60503;Laerm;51448;51.660;5.824;2023-02-26T12:34:26;65.59;38.68;85.02;;
60503;Laerm;51448;51.660;5.824;2023-02-26T12:49:53;60.49;32.36;86.28;;
60503;Laerm;51448;51.660;5.824;2023-02-26T12:52:46;61.70;33.99;84.10;;
60503;Laerm;51448;51.660;5.824;2023-02-26T12:55:43;58.18;33.22;79.58;;
60503;Laerm;51448;51.660;5.824;2023-02-26T13:05:11;60.27;34.76;85.60;;
60503;Laerm;51448;51.660;5.824;2023-02-26T13:17:45;62.40;35.78;87.34;;
60503;Laerm;51448;51.660;5.824;2023-02-26T13:20:24;57.47;35.11;79.73;;
60503;Laerm;51448;51.660;5.824;2023-02-26T13:23:15;53.38;33.86;82.03;;
60503;Laerm;51448;51.660;5.824;2023-02-26T13:26:03;52.14;34.28;72.82;;
60503;Laerm;51448;51.660;5.824;2023-02-26T13:31:25;59.10;37.20;82.90;;
60503;Laerm;51448;51.660;5.824;2023-02-26T13:34:05;65.50;34.57;88.98;;
60503;Laerm;51448;51.660;5.824;2023-02-26T13:36:45;61.08;34.91;86.43;;
60503;Laerm;51448;51.660;5.824;2023-02-26T13:39:46;61.35;36.49;82.61;;
60503;Laerm;51448;51.660;5.824;2023-02-26T13:49:50;56.92;33.87;81.57;;
60503;Laerm;51448;51.660;5.824;2023-02-26T13:52:32;57.44;35.02;78.81;;
60503;Laerm;51448;51.660;5.824;2023-02-26T13:55:04;57.29;36.44;75.97;;
60503;Laerm;51448;51.660;5.824;2023-02-26T13:57:46;50.46;34.48;69.47;;
60503;Laerm;51448;51.660;5.824;2023-02-26T14:00:32;55.99;36.12;75.52;;
60503;Laerm;51448;51.660;5.824;2023-02-26T14:03:29;59.52;34.39;82.64;;
60503;Laerm;51448;51.660;5.824;2023-02-26T14:06:22;54.05;33.76;77.60;;
60503;Laerm;51448;51.660;5.824;2023-02-26T14:08:55;58.33;37.07;81.35;;
60503;Laerm;51448;51.660;5.824;2023-02-26T14:11:32;60.49;35.77;80.70;;
60503;Laerm;51448;51.660;5.824;2023-02-26T14:14:17;57.99;33.41;78.64;;
60503;Laerm;51448;51.660;5.824;2023-02-26T14:24:38;64.00;36.49;89.85;;
60503;Laerm;51448;51.660;5.824;2023-02-26T14:29:59;62.18;34.60;88.44;;
60503;Laerm;51448;51.660;5.824;2023-02-26T14:32:32;58.09;36.80;79.02;;
60503;Laerm;51448;51.660;5.824;2023-02-26T14:35:22;63.08;36.60;86.79;;
60503;Laerm;51448;51.660;5.824;2023-02-26T14:38:03;57.39;35.25;79.13;;
60503;Laerm;51448;51.660;5.824;2023-02-26T14:43:44;48.54;32.61;67.73;;
60503;Laerm;51448;51.660;5.824;2023-02-26T14:46:18;56.07;34.95;78.45;;
60503;Laerm;51448;51.660;5.824;2023-02-26T14:48:49;54.87;34.20;74.85;;
60503;Laerm;51448;51.660;5.824;2023-02-26T14:51:23;55.51;34.07;80.02;;
60503;Laerm;51448;51.660;5.824;2023-02-26T14:54:30;55.26;33.45;78.76;;
60503;Laerm;51448;51.660;5.824;2023-02-26T15:08:53;55.44;35.93;76.02;;
60503;Laerm;51448;51.660;5.824;2023-02-26T15:11:44;60.54;35.46;83.18;;
60503;Laerm;51448;51.660;5.824;2023-02-26T15:17:30;51.41;32.79;76.67;;
60503;Laerm;51448;51.660;5.824;2023-02-26T15:23:02;52.77;34.21;76.69;;
60503;Laerm;51448;51.660;5.824;2023-02-26T15:25:39;50.07;31.71;71.82;;
60503;Laerm;51448;51.660;5.824;2023-02-26T15:28:26;58.17;32.68;83.72;;
60503;Laerm;51448;51.660;5.824;2023-02-26T15:30:56;61.31;36.47;83.86;;
60503;Laerm;51448;51.660;5.824;2023-02-26T15:33:26;57.25;36.55;76.26;;
60503;Laerm;51448;51.660;5.824;2023-02-26T15:36:00;57.72;34.09;79.78;;
60503;Laerm;51448;51.660;5.824;2023-02-26T15:38:29;55.58;33.67;81.87;;
60503;Laerm;51448;51.660;5.824;2023-02-26T15:41:10;55.54;34.56;78.82;;
60503;Laerm;51448;51.660;5.824;2023-02-26T15:43:48;58.11;37.90;79.04;;
60503;Laerm;51448;51.660;5.824;2023-02-26T15:46:20;59.02;34.68;86.98;;
60503;Laerm;51448;51.660;5.824;2023-02-26T15:48:59;54.02;34.09;72.95;;
60503;Laerm;51448;51.660;5.824;2023-02-26T15:51:28;49.41;34.71;66.43;;
60503;Laerm;51448;51.660;5.824;2023-02-26T15:53:56;59.14;37.16;81.42;;
60503;Laerm;51448;51.660;5.824;2023-02-26T15:56:34;53.72;35.89;71.13;;
60503;Laerm;51448;51.660;5.824;2023-02-26T15:59:11;53.17;36.22;74.58;;
60503;Laerm;51448;51.660;5.824;2023-02-26T16:01:42;49.86;33.54;70.74;;
60503;Laerm;51448;51.660;5.824;2023-02-26T16:04:15;55.41;35.08;79.85;;
60503;Laerm;51448;51.660;5.824;2023-02-26T16:06:52;52.90;33.40;71.09;;
60503;Laerm;51448;51.660;5.824;2023-02-26T16:09:32;48.91;31.74;70.97;;
60503;Laerm;51448;51.660;5.824;2023-02-26T16:12:09;47.80;32.04;64.36;;
60503;Laerm;51448;51.660;5.824;2023-02-26T16:14:58;48.21;33.67;64.03;;
60503;Laerm;51448;51.660;5.824;2023-02-26T16:17:34;49.32;33.53;63.47;;
60503;Laerm;51448;51.660;5.824;2023-02-26T16:20:15;56.86;33.48;84.66;;
60503;Laerm;51448;51.660;5.824;2023-02-26T16:22:59;45.33;32.51;60.15;;
60503;Laerm;51448;51.660;5.824;2023-02-26T16:25:38;50.56;32.19;67.25;;
60503;Laerm;51448;51.660;5.824;2023-02-26T16:28:32;49.41;32.41;69.38;;
60503;Laerm;51448;51.660;5.824;2023-02-26T16:31:03;48.34;32.24;70.35;;
60503;Laerm;51448;51.660;5.824;2023-02-26T16:33:33;53.64;32.46;79.38;;
60503;Laerm;51448;51.660;5.824;2023-02-26T16:36:14;56.48;33.86;76.59;;
60503;Laerm;51448;51.660;5.824;2023-02-26T16:38:55;47.51;32.90;64.86;;
60503;Laerm;51448;51.660;5.824;2023-02-26T16:41:28;50.29;31.85;74.81;;
60503;Laerm;51448;51.660;5.824;2023-02-26T16:44:03;49.10;31.99;69.39;;
60503;Laerm;51448;51.660;5.824;2023-02-26T16:46:43;63.00;31.39;82.85;;
60503;Laerm;51448;51.660;5.824;2023-02-26T16:51:45;46.46;31.46;63.37;;
60503;Laerm;51448;51.660;5.824;2023-02-26T16:54:22;44.63;31.30;66.15;;
60503;Laerm;51448;51.660;5.824;2023-02-26T16:57:12;47.84;31.04;61.24;;
60503;Laerm;51448;51.660;5.824;2023-02-26T16:59:54;43.89;31.16;58.75;;
60503;Laerm;51448;51.660;5.824;2023-02-26T17:02:27;46.32;32.25;58.41;;